sensor_id;sensor_type;location;lat;lon;timestamp;temperature;humidity
52791;DHT22;41253;46.856;-71.574;2022-07-23T00:00:08;22.70;99.90
52791;DHT22;41253;46.856;-71.574;2022-07-23T00:02:35;22.60;99.90
52791;DHT22;41253;46.856;-71.574;2022-07-23T00:05:02;22.50;99.90
52791;DHT22;41253;46.856;-71.574;2022-07-23T00:07:29;22.10;99.90
52791;DHT22;41253;46.856;-71.574;2022-07-23T00:09:55;21.10;99.90
52791;DHT22;41253;46.856;-71.574;2022-07-23T00:12:21;20.50;99.90
52791;DHT22;41253;46.856;-71.574;2022-07-23T00:14:48;19.30;99.90
52791;DHT22;41253;46.856;-71.574;2022-07-23T00:17:15;18.80;99.90
52791;DHT22;41253;46.856;-71.574;2022-07-23T00:19:41;18.80;99.90
52791;DHT22;41253;46.856;-71.574;2022-07-23T00:22:07;19.00;99.90
52791;DHT22;41253;46.856;-71.574;2022-07-23T00:24:34;19.10;99.90
52791;DHT22;41253;46.856;-71.574;2022-07-23T00:27:00;19.30;99.90
52791;DHT22;41253;46.856;-71.574;2022-07-23T00:29:27;19.10;99.90
52791;DHT22;41253;46.856;-71.574;2022-07-23T00:31:53;19.20;99.90
52791;DHT22;41253;46.856;-71.574;2022-07-23T00:34:19;19.20;99.90
52791;DHT22;41253;46.856;-71.574;2022-07-23T00:36:46;19.40;99.90
52791;DHT22;41253;46.856;-71.574;2022-07-23T00:39:12;19.60;99.90
52791;DHT22;41253;46.856;-71.574;2022-07-23T00:41:39;19.70;99.90
52791;DHT22;41253;46.856;-71.574;2022-07-23T00:44:23;19.70;99.90
52791;DHT22;41253;46.856;-71.574;2022-07-23T00:46:51;19.60;99.90
52791;DHT22;41253;46.856;-71.574;2022-07-23T00:49:29;19.60;99.90
52791;DHT22;41253;46.856;-71.574;2022-07-23T00:51:57;19.50;99.90
52791;DHT22;41253;46.856;-71.574;2022-07-23T00:54:25;19.40;99.90
52791;DHT22;41253;46.856;-71.574;2022-07-23T00:56:53;19.60;99.90
52791;DHT22;41253;46.856;-71.574;2022-07-23T00:59:20;19.40;99.90
52791;DHT22;41253;46.856;-71.574;2022-07-23T01:01:46;19.50;99.90
52791;DHT22;41253;46.856;-71.574;2022-07-23T01:04:16;19.70;99.90
52791;DHT22;41253;46.856;-71.574;2022-07-23T01:06:43;19.70;99.90
52791;DHT22;41253;46.856;-71.574;2022-07-23T01:09:11;19.60;99.90
52791;DHT22;41253;46.856;-71.574;2022-07-23T01:11:38;19.60;99.90
52791;DHT22;41253;46.856;-71.574;2022-07-23T01:14:12;19.60;99.90
52791;DHT22;41253;46.856;-71.574;2022-07-23T01:16:40;19.50;99.90
52791;DHT22;41253;46.856;-71.574;2022-07-23T01:19:07;19.40;99.90
52791;DHT22;41253;46.856;-71.574;2022-07-23T01:21:40;19.40;99.90
52791;DHT22;41253;46.856;-71.574;2022-07-23T01:24:08;19.30;99.90
52791;DHT22;41253;46.856;-71.574;2022-07-23T01:26:35;19.40;99.90
52791;DHT22;41253;46.856;-71.574;2022-07-23T01:29:03;19.20;99.90
52791;DHT22;41253;46.856;-71.574;2022-07-23T01:31:30;19.10;99.90
52791;DHT22;41253;46.856;-71.574;2022-07-23T01:33:57;19.00;99.90
52791;DHT22;41253;46.856;-71.574;2022-07-23T01:36:23;19.00;99.90
52791;DHT22;41253;46.856;-71.574;2022-07-23T01:38:50;19.00;99.90
52791;DHT22;41253;46.856;-71.574;2022-07-23T01:41:17;18.90;99.90
52791;DHT22;41253;46.856;-71.574;2022-07-23T01:43:44;19.00;99.90
52791;DHT22;41253;46.856;-71.574;2022-07-23T01:46:10;19.10;99.90
52791;DHT22;41253;46.856;-71.574;2022-07-23T01:48:37;19.00;99.90
52791;DHT22;41253;46.856;-71.574;2022-07-23T01:51:04;18.90;99.90
52791;DHT22;41253;46.856;-71.574;2022-07-23T01:53:31;18.90;99.90
52791;DHT22;41253;46.856;-71.574;2022-07-23T01:55:58;18.90;99.90
52791;DHT22;41253;46.856;-71.574;2022-07-23T01:58:26;19.00;99.90
52791;DHT22;41253;46.856;-71.574;2022-07-23T02:00:53;18.90;99.90
52791;DHT22;41253;46.856;-71.574;2022-07-23T02:03:20;18.90;99.90
52791;DHT22;41253;46.856;-71.574;2022-07-23T02:05:47;19.00;99.90
52791;DHT22;41253;46.856;-71.574;2022-07-23T02:08:15;18.90;99.90
52791;DHT22;41253;46.856;-71.574;2022-07-23T02:10:41;18.80;99.90
52791;DHT22;41253;46.856;-71.574;2022-07-23T02:13:08;18.80;99.90
52791;DHT22;41253;46.856;-71.574;2022-07-23T02:15:34;18.80;99.90
52791;DHT22;41253;46.856;-71.574;2022-07-23T02:18:01;18.90;99.90
52791;DHT22;41253;46.856;-71.574;2022-07-23T02:20:27;19.00;99.90
52791;DHT22;41253;46.856;-71.574;2022-07-23T02:22:54;19.10;99.90
52791;DHT22;41253;46.856;-71.574;2022-07-23T02:25:20;19.00;99.90
52791;DHT22;41253;46.856;-71.574;2022-07-23T02:27:47;19.10;99.90
52791;DHT22;41253;46.856;-71.574;2022-07-23T02:30:13;19.10;99.90
52791;DHT22;41253;46.856;-71.574;2022-07-23T02:32:40;19.10;99.90
52791;DHT22;41253;46.856;-71.574;2022-07-23T02:35:07;19.10;99.90
52791;DHT22;41253;46.856;-71.574;2022-07-23T02:37:33;19.10;99.90
52791;DHT22;41253;46.856;-71.574;2022-07-23T02:40:00;19.10;99.90
52791;DHT22;41253;46.856;-71.574;2022-07-23T02:42:26;19.00;99.90
52791;DHT22;41253;46.856;-71.574;2022-07-23T02:44:53;19.00;99.90
52791;DHT22;41253;46.856;-71.574;2022-07-23T02:47:19;19.00;99.90
52791;DHT22;41253;46.856;-71.574;2022-07-23T02:49:45;19.00;99.90
52791;DHT22;41253;46.856;-71.574;2022-07-23T02:52:12;19.00;99.90
52791;DHT22;41253;46.856;-71.574;2022-07-23T02:54:39;18.80;99.90
52791;DHT22;41253;46.856;-71.574;2022-07-23T02:57:05;18.70;99.90
52791;DHT22;41253;46.856;-71.574;2022-07-23T02:59:32;18.60;99.90
52791;DHT22;41253;46.856;-71.574;2022-07-23T03:01:58;18.60;99.90
52791;DHT22;41253;46.856;-71.574;2022-07-23T03:04:24;18.70;99.90
52791;DHT22;41253;46.856;-71.574;2022-07-23T03:06:51;18.80;99.90
52791;DHT22;41253;46.856;-71.574;2022-07-23T03:09:18;18.60;99.90
52791;DHT22;41253;46.856;-71.574;2022-07-23T03:11:44;18.60;99.90
52791;DHT22;41253;46.856;-71.574;2022-07-23T03:14:10;18.50;99.90
52791;DHT22;41253;46.856;-71.574;2022-07-23T03:16:39;18.30;99.90
52791;DHT22;41253;46.856;-71.574;2022-07-23T03:19:06;18.40;99.90
52791;DHT22;41253;46.856;-71.574;2022-07-23T03:21:32;18.40;99.90
52791;DHT22;41253;46.856;-71.574;2022-07-23T03:24:00;18.40;99.90
52791;DHT22;41253;46.856;-71.574;2022-07-23T03:26:27;18.30;99.90
52791;DHT22;41253;46.856;-71.574;2022-07-23T03:28:53;18.30;99.90
52791;DHT22;41253;46.856;-71.574;2022-07-23T03:31:20;18.30;99.90
52791;DHT22;41253;46.856;-71.574;2022-07-23T03:33:46;18.40;99.90
52791;DHT22;41253;46.856;-71.574;2022-07-23T03:36:12;18.40;99.90
52791;DHT22;41253;46.856;-71.574;2022-07-23T03:38:39;18.40;99.90
52791;DHT22;41253;46.856;-71.574;2022-07-23T03:41:05;18.30;99.90
52791;DHT22;41253;46.856;-71.574;2022-07-23T03:43:32;18.30;99.90
52791;DHT22;41253;46.856;-71.574;2022-07-23T03:45:59;18.20;99.90
52791;DHT22;41253;46.856;-71.574;2022-07-23T03:48:25;18.20;99.90
52791;DHT22;41253;46.856;-71.574;2022-07-23T03:50:52;18.30;99.90
52791;DHT22;41253;46.856;-71.574;2022-07-23T03:53:18;18.20;99.90
52791;DHT22;41253;46.856;-71.574;2022-07-23T03:55:45;18.30;99.90
52791;DHT22;41253;46.856;-71.574;2022-07-23T03:58:11;18.20;99.90
52791;DHT22;41253;46.856;-71.574;2022-07-23T04:00:37;18.20;99.90
52791;DHT22;41253;46.856;-71.574;2022-07-23T04:03:04;18.20;99.90
52791;DHT22;41253;46.856;-71.574;2022-07-23T04:05:30;18.10;99.90
52791;DHT22;41253;46.856;-71.574;2022-07-23T04:07:57;18.10;99.90
52791;DHT22;41253;46.856;-71.574;2022-07-23T04:10:23;18.00;99.90
52791;DHT22;41253;46.856;-71.574;2022-07-23T04:12:50;18.00;99.90
52791;DHT22;41253;46.856;-71.574;2022-07-23T04:15:16;17.90;99.90
52791;DHT22;41253;46.856;-71.574;2022-07-23T04:17:42;17.80;99.90
52791;DHT22;41253;46.856;-71.574;2022-07-23T04:20:10;17.80;99.90
52791;DHT22;41253;46.856;-71.574;2022-07-23T04:22:37;17.90;99.90
52791;DHT22;41253;46.856;-71.574;2022-07-23T04:25:04;17.90;99.90
52791;DHT22;41253;46.856;-71.574;2022-07-23T04:27:30;17.80;99.90
52791;DHT22;41253;46.856;-71.574;2022-07-23T04:29:59;17.80;99.90
52791;DHT22;41253;46.856;-71.574;2022-07-23T04:32:26;17.80;99.90
52791;DHT22;41253;46.856;-71.574;2022-07-23T04:34:52;17.80;99.90
52791;DHT22;41253;46.856;-71.574;2022-07-23T04:37:18;17.60;99.90
52791;DHT22;41253;46.856;-71.574;2022-07-23T04:39:45;17.40;99.90
52791;DHT22;41253;46.856;-71.574;2022-07-23T04:42:11;17.40;99.90
52791;DHT22;41253;46.856;-71.574;2022-07-23T04:44:38;17.40;99.90
52791;DHT22;41253;46.856;-71.574;2022-07-23T04:47:04;17.60;99.90
52791;DHT22;41253;46.856;-71.574;2022-07-23T04:49:31;17.50;99.90
52791;DHT22;41253;46.856;-71.574;2022-07-23T04:51:57;17.40;99.90
52791;DHT22;41253;46.856;-71.574;2022-07-23T04:54:23;17.20;99.90
52791;DHT22;41253;46.856;-71.574;2022-07-23T04:56:50;17.10;99.90
52791;DHT22;41253;46.856;-71.574;2022-07-23T04:59:16;17.20;99.90
52791;DHT22;41253;46.856;-71.574;2022-07-23T05:01:43;17.10;99.90
52791;DHT22;41253;46.856;-71.574;2022-07-23T05:04:09;17.20;99.90
52791;DHT22;41253;46.856;-71.574;2022-07-23T05:06:36;17.20;99.90
52791;DHT22;41253;46.856;-71.574;2022-07-23T05:09:02;17.30;99.90
52791;DHT22;41253;46.856;-71.574;2022-07-23T05:11:29;17.40;99.90
52791;DHT22;41253;46.856;-71.574;2022-07-23T05:13:55;17.20;99.90
52791;DHT22;41253;46.856;-71.574;2022-07-23T05:16:22;17.00;99.90
52791;DHT22;41253;46.856;-71.574;2022-07-23T05:18:48;17.20;99.90
52791;DHT22;41253;46.856;-71.574;2022-07-23T05:21:15;17.10;99.90
52791;DHT22;41253;46.856;-71.574;2022-07-23T05:23:41;17.00;99.90
52791;DHT22;41253;46.856;-71.574;2022-07-23T05:26:08;16.90;99.90
52791;DHT22;41253;46.856;-71.574;2022-07-23T05:28:34;17.10;99.90
52791;DHT22;41253;46.856;-71.574;2022-07-23T05:31:00;17.00;99.90
52791;DHT22;41253;46.856;-71.574;2022-07-23T05:33:27;16.90;99.90
52791;DHT22;41253;46.856;-71.574;2022-07-23T05:35:53;17.20;99.90
52791;DHT22;41253;46.856;-71.574;2022-07-23T05:38:20;17.00;99.90
52791;DHT22;41253;46.856;-71.574;2022-07-23T05:40:46;17.20;99.90
52791;DHT22;41253;46.856;-71.574;2022-07-23T05:43:12;17.10;99.90
52791;DHT22;41253;46.856;-71.574;2022-07-23T05:45:39;17.10;99.90
52791;DHT22;41253;46.856;-71.574;2022-07-23T05:48:05;17.10;99.90
52791;DHT22;41253;46.856;-71.574;2022-07-23T05:50:32;17.20;99.90
52791;DHT22;41253;46.856;-71.574;2022-07-23T05:52:58;17.10;99.90
52791;DHT22;41253;46.856;-71.574;2022-07-23T05:55:25;17.00;99.90
52791;DHT22;41253;46.856;-71.574;2022-07-23T05:57:52;17.20;99.90
52791;DHT22;41253;46.856;-71.574;2022-07-23T06:00:18;17.00;99.90
52791;DHT22;41253;46.856;-71.574;2022-07-23T06:02:44;17.00;99.90
52791;DHT22;41253;46.856;-71.574;2022-07-23T06:05:11;16.90;99.90
52791;DHT22;41253;46.856;-71.574;2022-07-23T06:07:37;16.80;99.90
52791;DHT22;41253;46.856;-71.574;2022-07-23T06:10:04;16.80;99.90
52791;DHT22;41253;46.856;-71.574;2022-07-23T06:12:31;16.80;99.90
52791;DHT22;41253;46.856;-71.574;2022-07-23T06:14:57;16.80;99.90
52791;DHT22;41253;46.856;-71.574;2022-07-23T06:17:24;16.70;99.90
52791;DHT22;41253;46.856;-71.574;2022-07-23T06:19:50;16.70;99.90
52791;DHT22;41253;46.856;-71.574;2022-07-23T06:22:17;16.70;99.90
52791;DHT22;41253;46.856;-71.574;2022-07-23T06:24:43;16.80;99.90
52791;DHT22;41253;46.856;-71.574;2022-07-23T06:27:10;16.90;99.90
52791;DHT22;41253;46.856;-71.574;2022-07-23T06:29:36;16.80;99.90
52791;DHT22;41253;46.856;-71.574;2022-07-23T06:32:02;16.70;99.90
52791;DHT22;41253;46.856;-71.574;2022-07-23T06:34:29;16.60;99.90
52791;DHT22;41253;46.856;-71.574;2022-07-23T06:36:55;16.60;99.90
52791;DHT22;41253;46.856;-71.574;2022-07-23T06:39:22;16.80;99.90
52791;DHT22;41253;46.856;-71.574;2022-07-23T06:41:48;17.00;99.90
52791;DHT22;41253;46.856;-71.574;2022-07-23T06:44:15;16.90;99.90
52791;DHT22;41253;46.856;-71.574;2022-07-23T06:46:41;17.00;99.90
52791;DHT22;41253;46.856;-71.574;2022-07-23T06:49:08;16.90;99.90
52791;DHT22;41253;46.856;-71.574;2022-07-23T06:51:34;16.90;99.90
52791;DHT22;41253;46.856;-71.574;2022-07-23T06:54:01;16.70;99.90
52791;DHT22;41253;46.856;-71.574;2022-07-23T06:56:28;16.90;99.90
52791;DHT22;41253;46.856;-71.574;2022-07-23T06:58:54;16.90;99.90
52791;DHT22;41253;46.856;-71.574;2022-07-23T07:01:21;16.80;99.90
52791;DHT22;41253;46.856;-71.574;2022-07-23T07:03:47;16.70;99.90
52791;DHT22;41253;46.856;-71.574;2022-07-23T07:06:15;16.60;99.90
52791;DHT22;41253;46.856;-71.574;2022-07-23T07:08:41;16.40;99.90
52791;DHT22;41253;46.856;-71.574;2022-07-23T07:11:10;16.30;99.90
52791;DHT22;41253;46.856;-71.574;2022-07-23T07:13:37;16.30;99.90
52791;DHT22;41253;46.856;-71.574;2022-07-23T07:16:04;16.30;99.90
52791;DHT22;41253;46.856;-71.574;2022-07-23T07:18:31;16.50;99.90
52791;DHT22;41253;46.856;-71.574;2022-07-23T07:20:57;16.40;99.90
52791;DHT22;41253;46.856;-71.574;2022-07-23T07:23:24;16.30;99.90
52791;DHT22;41253;46.856;-71.574;2022-07-23T07:25:50;16.30;99.90
52791;DHT22;41253;46.856;-71.574;2022-07-23T07:28:17;16.30;99.90
52791;DHT22;41253;46.856;-71.574;2022-07-23T07:30:43;16.30;99.90
52791;DHT22;41253;46.856;-71.574;2022-07-23T07:33:09;16.20;99.90
52791;DHT22;41253;46.856;-71.574;2022-07-23T07:35:36;16.50;99.90
52791;DHT22;41253;46.856;-71.574;2022-07-23T07:38:03;16.50;99.90
52791;DHT22;41253;46.856;-71.574;2022-07-23T07:40:29;16.40;99.90
52791;DHT22;41253;46.856;-71.574;2022-07-23T07:42:55;16.50;99.90
52791;DHT22;41253;46.856;-71.574;2022-07-23T07:45:25;16.30;99.90
52791;DHT22;41253;46.856;-71.574;2022-07-23T07:47:52;16.10;99.90
52791;DHT22;41253;46.856;-71.574;2022-07-23T07:50:20;16.10;99.90
52791;DHT22;41253;46.856;-71.574;2022-07-23T07:52:46;16.10;99.90
52791;DHT22;41253;46.856;-71.574;2022-07-23T07:55:13;16.00;99.90
52791;DHT22;41253;46.856;-71.574;2022-07-23T07:57:40;16.00;99.90
52791;DHT22;41253;46.856;-71.574;2022-07-23T08:00:08;16.10;99.90
52791;DHT22;41253;46.856;-71.574;2022-07-23T08:02:45;15.90;99.90
52791;DHT22;41253;46.856;-71.574;2022-07-23T08:05:13;15.80;99.90
52791;DHT22;41253;46.856;-71.574;2022-07-23T08:07:40;15.80;99.90
52791;DHT22;41253;46.856;-71.574;2022-07-23T08:10:08;15.80;99.90
52791;DHT22;41253;46.856;-71.574;2022-07-23T08:12:42;15.80;99.90
52791;DHT22;41253;46.856;-71.574;2022-07-23T08:15:12;15.80;99.90
52791;DHT22;41253;46.856;-71.574;2022-07-23T08:17:38;15.70;99.90
52791;DHT22;41253;46.856;-71.574;2022-07-23T08:20:06;15.60;99.90
52791;DHT22;41253;46.856;-71.574;2022-07-23T08:25:24;15.40;99.90
52791;DHT22;41253;46.856;-71.574;2022-07-23T08:27:51;15.40;99.90
52791;DHT22;41253;46.856;-71.574;2022-07-23T08:30:18;15.60;99.90
52791;DHT22;41253;46.856;-71.574;2022-07-23T08:35:46;15.20;99.90
52791;DHT22;41253;46.856;-71.574;2022-07-23T08:38:14;15.20;99.90
52791;DHT22;41253;46.856;-71.574;2022-07-23T08:40:46;15.40;99.90
52791;DHT22;41253;46.856;-71.574;2022-07-23T08:43:21;15.60;99.90
52791;DHT22;41253;46.856;-71.574;2022-07-23T08:45:53;15.60;99.90
52791;DHT22;41253;46.856;-71.574;2022-07-23T08:48:24;15.80;99.90
52791;DHT22;41253;46.856;-71.574;2022-07-23T08:50:53;15.80;99.90
52791;DHT22;41253;46.856;-71.574;2022-07-23T08:53:25;15.80;99.90
52791;DHT22;41253;46.856;-71.574;2022-07-23T08:55:54;15.70;99.90
52791;DHT22;41253;46.856;-71.574;2022-07-23T08:58:21;15.50;99.90
52791;DHT22;41253;46.856;-71.574;2022-07-23T09:00:48;15.40;99.90
52791;DHT22;41253;46.856;-71.574;2022-07-23T09:03:17;15.40;99.90
52791;DHT22;41253;46.856;-71.574;2022-07-23T09:05:45;15.40;99.90
52791;DHT22;41253;46.856;-71.574;2022-07-23T09:08:16;15.50;99.90
52791;DHT22;41253;46.856;-71.574;2022-07-23T09:10:57;15.60;99.90
52791;DHT22;41253;46.856;-71.574;2022-07-23T09:13:34;15.60;99.90
52791;DHT22;41253;46.856;-71.574;2022-07-23T09:16:05;15.40;99.90
52791;DHT22;41253;46.856;-71.574;2022-07-23T09:18:35;15.30;99.90
52791;DHT22;41253;46.856;-71.574;2022-07-23T09:21:25;15.30;99.90
52791;DHT22;41253;46.856;-71.574;2022-07-23T09:23:57;15.20;99.90
52791;DHT22;41253;46.856;-71.574;2022-07-23T09:26:35;15.20;99.90
52791;DHT22;41253;46.856;-71.574;2022-07-23T09:29:24;15.20;99.90
52791;DHT22;41253;46.856;-71.574;2022-07-23T09:32:03;15.20;99.90
52791;DHT22;41253;46.856;-71.574;2022-07-23T09:34:36;15.20;99.90
52791;DHT22;41253;46.856;-71.574;2022-07-23T09:37:14;15.40;99.90
52791;DHT22;41253;46.856;-71.574;2022-07-23T09:39:43;15.40;99.90
52791;DHT22;41253;46.856;-71.574;2022-07-23T09:42:15;15.40;99.90
52791;DHT22;41253;46.856;-71.574;2022-07-23T09:44:43;15.50;99.90
52791;DHT22;41253;46.856;-71.574;2022-07-23T09:47:11;15.60;99.90
52791;DHT22;41253;46.856;-71.574;2022-07-23T09:49:37;15.80;99.90
52791;DHT22;41253;46.856;-71.574;2022-07-23T09:52:04;15.90;99.90
52791;DHT22;41253;46.856;-71.574;2022-07-23T09:57:19;16.00;99.90
52791;DHT22;41253;46.856;-71.574;2022-07-23T09:59:47;15.90;99.90
52791;DHT22;41253;46.856;-71.574;2022-07-23T10:02:13;15.70;99.90
52791;DHT22;41253;46.856;-71.574;2022-07-23T10:04:41;15.70;99.90
52791;DHT22;41253;46.856;-71.574;2022-07-23T10:07:08;15.50;99.90
52791;DHT22;41253;46.856;-71.574;2022-07-23T10:09:38;15.60;99.90
52791;DHT22;41253;46.856;-71.574;2022-07-23T10:12:11;15.90;99.90
52791;DHT22;41253;46.856;-71.574;2022-07-23T10:14:41;16.20;99.90
52791;DHT22;41253;46.856;-71.574;2022-07-23T10:17:08;16.30;99.90
52791;DHT22;41253;46.856;-71.574;2022-07-23T10:19:35;16.40;99.90
52791;DHT22;41253;46.856;-71.574;2022-07-23T10:22:06;16.40;99.90
52791;DHT22;41253;46.856;-71.574;2022-07-23T10:30:43;16.50;99.90
52791;DHT22;41253;46.856;-71.574;2022-07-23T10:36:01;16.40;99.90
52791;DHT22;41253;46.856;-71.574;2022-07-23T10:38:48;16.40;99.90
52791;DHT22;41253;46.856;-71.574;2022-07-23T10:41:37;16.60;99.90
52791;DHT22;41253;46.856;-71.574;2022-07-23T10:44:17;16.60;99.90
52791;DHT22;41253;46.856;-71.574;2022-07-23T10:47:02;16.60;99.90
52791;DHT22;41253;46.856;-71.574;2022-07-23T10:49:32;16.60;99.90
52791;DHT22;41253;46.856;-71.574;2022-07-23T10:57:27;16.90;99.90
52791;DHT22;41253;46.856;-71.574;2022-07-23T11:02:36;17.10;99.90
52791;DHT22;41253;46.856;-71.574;2022-07-23T11:05:08;17.20;99.90
52791;DHT22;41253;46.856;-71.574;2022-07-23T11:07:36;17.30;99.90
52791;DHT22;41253;46.856;-71.574;2022-07-23T11:10:04;17.40;99.90
52791;DHT22;41253;46.856;-71.574;2022-07-23T11:17:26;17.60;99.90
52791;DHT22;41253;46.856;-71.574;2022-07-23T11:25:13;17.80;99.90
52791;DHT22;41253;46.856;-71.574;2022-07-23T11:27:42;17.90;99.90
52791;DHT22;41253;46.856;-71.574;2022-07-23T11:30:37;18.00;99.90
52791;DHT22;41253;46.856;-71.574;2022-07-23T11:35:40;18.10;99.90
52791;DHT22;41253;46.856;-71.574;2022-07-23T11:38:17;18.20;99.90
52791;DHT22;41253;46.856;-71.574;2022-07-23T11:40:49;18.30;99.90
52791;DHT22;41253;46.856;-71.574;2022-07-23T11:43:17;18.50;99.90
52791;DHT22;41253;46.856;-71.574;2022-07-23T11:45:45;18.90;99.90
52791;DHT22;41253;46.856;-71.574;2022-07-23T11:48:19;19.00;99.90
52791;DHT22;41253;46.856;-71.574;2022-07-23T11:50:46;19.00;99.90
52791;DHT22;41253;46.856;-71.574;2022-07-23T11:53:13;19.20;99.90
52791;DHT22;41253;46.856;-71.574;2022-07-23T11:55:39;19.50;99.90
52791;DHT22;41253;46.856;-71.574;2022-07-23T11:58:06;19.60;99.90
52791;DHT22;41253;46.856;-71.574;2022-07-23T12:00:33;19.60;99.90
52791;DHT22;41253;46.856;-71.574;2022-07-23T12:03:02;19.70;99.90
52791;DHT22;41253;46.856;-71.574;2022-07-23T12:05:32;19.90;99.90
52791;DHT22;41253;46.856;-71.574;2022-07-23T12:08:05;20.10;99.90
52791;DHT22;41253;46.856;-71.574;2022-07-23T12:10:40;20.30;99.90
52791;DHT22;41253;46.856;-71.574;2022-07-23T12:13:19;20.60;99.90
52791;DHT22;41253;46.856;-71.574;2022-07-23T12:15:51;21.10;99.90
52791;DHT22;41253;46.856;-71.574;2022-07-23T12:18:21;21.90;99.90
52791;DHT22;41253;46.856;-71.574;2022-07-23T12:20:51;22.50;99.90
52791;DHT22;41253;46.856;-71.574;2022-07-23T12:23:20;23.10;99.90
52791;DHT22;41253;46.856;-71.574;2022-07-23T12:25:48;23.60;99.90
52791;DHT22;41253;46.856;-71.574;2022-07-23T12:28:20;23.50;99.90
52791;DHT22;41253;46.856;-71.574;2022-07-23T12:30:52;23.50;99.90
52791;DHT22;41253;46.856;-71.574;2022-07-23T12:33:32;23.50;99.90
52791;DHT22;41253;46.856;-71.574;2022-07-23T12:36:01;23.10;99.90
52791;DHT22;41253;46.856;-71.574;2022-07-23T12:38:41;23.00;99.90
52791;DHT22;41253;46.856;-71.574;2022-07-23T12:41:08;22.80;99.90
52791;DHT22;41253;46.856;-71.574;2022-07-23T12:43:39;22.80;99.90
52791;DHT22;41253;46.856;-71.574;2022-07-23T12:46:11;22.90;99.90
52791;DHT22;41253;46.856;-71.574;2022-07-23T12:48:53;23.10;99.90
52791;DHT22;41253;46.856;-71.574;2022-07-23T12:53:52;23.20;99.90
52791;DHT22;41253;46.856;-71.574;2022-07-23T12:56:28;23.60;99.90
52791;DHT22;41253;46.856;-71.574;2022-07-23T12:58:58;23.40;99.90
52791;DHT22;41253;46.856;-71.574;2022-07-23T13:01:28;23.10;99.90
52791;DHT22;41253;46.856;-71.574;2022-07-23T13:04:19;23.30;99.90
52791;DHT22;41253;46.856;-71.574;2022-07-23T13:09:17;23.60;99.90
52791;DHT22;41253;46.856;-71.574;2022-07-23T13:11:45;23.40;99.90
52791;DHT22;41253;46.856;-71.574;2022-07-23T13:14:13;23.00;99.90
52791;DHT22;41253;46.856;-71.574;2022-07-23T13:16:41;23.40;99.90
52791;DHT22;41253;46.856;-71.574;2022-07-23T13:19:07;23.80;99.90
52791;DHT22;41253;46.856;-71.574;2022-07-23T13:21:34;23.80;99.90
52791;DHT22;41253;46.856;-71.574;2022-07-23T13:24:01;24.50;99.90
52791;DHT22;41253;46.856;-71.574;2022-07-23T13:26:27;25.00;99.90
52791;DHT22;41253;46.856;-71.574;2022-07-23T13:28:54;25.00;99.90
52791;DHT22;41253;46.856;-71.574;2022-07-23T13:31:21;24.90;99.90
52791;DHT22;41253;46.856;-71.574;2022-07-23T13:33:47;24.60;99.90
52791;DHT22;41253;46.856;-71.574;2022-07-23T13:36:13;24.20;99.90
52791;DHT22;41253;46.856;-71.574;2022-07-23T13:38:40;23.90;99.90
52791;DHT22;41253;46.856;-71.574;2022-07-23T13:41:07;23.60;99.90
52791;DHT22;41253;46.856;-71.574;2022-07-23T13:43:33;23.40;99.90
52791;DHT22;41253;46.856;-71.574;2022-07-23T13:46:00;23.40;99.90
52791;DHT22;41253;46.856;-71.574;2022-07-23T13:48:26;23.20;99.90
52791;DHT22;41253;46.856;-71.574;2022-07-23T13:50:55;22.90;99.90
52791;DHT22;41253;46.856;-71.574;2022-07-23T13:53:23;23.00;99.90
52791;DHT22;41253;46.856;-71.574;2022-07-23T13:55:51;23.00;99.90
52791;DHT22;41253;46.856;-71.574;2022-07-23T13:58:18;22.90;99.90
52791;DHT22;41253;46.856;-71.574;2022-07-23T14:00:47;23.00;99.90
52791;DHT22;41253;46.856;-71.574;2022-07-23T14:03:15;22.90;99.90
52791;DHT22;41253;46.856;-71.574;2022-07-23T14:05:42;23.10;99.90
52791;DHT22;41253;46.856;-71.574;2022-07-23T14:08:08;23.10;99.90
52791;DHT22;41253;46.856;-71.574;2022-07-23T14:10:35;22.90;99.90
52791;DHT22;41253;46.856;-71.574;2022-07-23T14:13:01;23.00;99.90
52791;DHT22;41253;46.856;-71.574;2022-07-23T14:15:31;23.20;99.90
52791;DHT22;41253;46.856;-71.574;2022-07-23T14:17:58;23.00;99.90
52791;DHT22;41253;46.856;-71.574;2022-07-23T14:20:25;23.30;99.90
52791;DHT22;41253;46.856;-71.574;2022-07-23T14:22:51;23.50;99.90
52791;DHT22;41253;46.856;-71.574;2022-07-23T14:25:19;23.90;99.90
52791;DHT22;41253;46.856;-71.574;2022-07-23T14:27:45;24.90;99.90
52791;DHT22;41253;46.856;-71.574;2022-07-23T14:30:13;24.80;99.90
52791;DHT22;41253;46.856;-71.574;2022-07-23T14:32:40;24.70;99.90
52791;DHT22;41253;46.856;-71.574;2022-07-23T14:35:07;24.20;99.90
52791;DHT22;41253;46.856;-71.574;2022-07-23T14:37:34;24.20;99.90
52791;DHT22;41253;46.856;-71.574;2022-07-23T14:40:01;24.50;99.90
52791;DHT22;41253;46.856;-71.574;2022-07-23T14:42:27;25.10;99.90
52791;DHT22;41253;46.856;-71.574;2022-07-23T14:44:53;25.50;99.90
52791;DHT22;41253;46.856;-71.574;2022-07-23T14:47:20;25.20;99.90
52791;DHT22;41253;46.856;-71.574;2022-07-23T14:49:46;25.00;99.90
52791;DHT22;41253;46.856;-71.574;2022-07-23T14:52:13;25.00;99.90
52791;DHT22;41253;46.856;-71.574;2022-07-23T14:54:39;25.30;99.90
52791;DHT22;41253;46.856;-71.574;2022-07-23T14:57:06;25.60;99.90
52791;DHT22;41253;46.856;-71.574;2022-07-23T14:59:34;25.80;99.90
52791;DHT22;41253;46.856;-71.574;2022-07-23T15:02:01;26.10;99.90
52791;DHT22;41253;46.856;-71.574;2022-07-23T15:04:27;26.30;99.90
52791;DHT22;41253;46.856;-71.574;2022-07-23T15:06:54;26.50;99.90
52791;DHT22;41253;46.856;-71.574;2022-07-23T15:09:20;26.70;99.90
52791;DHT22;41253;46.856;-71.574;2022-07-23T15:11:47;27.20;99.90
52791;DHT22;41253;46.856;-71.574;2022-07-23T15:14:14;27.20;99.90
52791;DHT22;41253;46.856;-71.574;2022-07-23T15:16:41;27.20;99.90
52791;DHT22;41253;46.856;-71.574;2022-07-23T15:19:08;27.20;99.90
52791;DHT22;41253;46.856;-71.574;2022-07-23T15:21:34;27.30;99.90
52791;DHT22;41253;46.856;-71.574;2022-07-23T15:24:00;27.20;99.90
52791;DHT22;41253;46.856;-71.574;2022-07-23T15:26:29;27.20;99.90
52791;DHT22;41253;46.856;-71.574;2022-07-23T15:28:56;27.10;99.90
52791;DHT22;41253;46.856;-71.574;2022-07-23T15:31:25;27.20;99.90
52791;DHT22;41253;46.856;-71.574;2022-07-23T15:33:52;27.10;99.90
52791;DHT22;41253;46.856;-71.574;2022-07-23T15:36:19;26.60;99.90
52791;DHT22;41253;46.856;-71.574;2022-07-23T15:38:46;26.30;99.90
52791;DHT22;41253;46.856;-71.574;2022-07-23T15:41:13;26.70;99.90
52791;DHT22;41253;46.856;-71.574;2022-07-23T15:43:39;27.10;99.90
52791;DHT22;41253;46.856;-71.574;2022-07-23T15:46:06;27.40;99.90
52791;DHT22;41253;46.856;-71.574;2022-07-23T15:48:36;27.90;99.90
52791;DHT22;41253;46.856;-71.574;2022-07-23T15:51:04;27.60;99.90